Ancramdale, New York
Current Conditions -  °F | °C
As of 10:53 AM on Tuesday 27 Jan 2015 (Local Time) from KPOU Reporting Station
Light Snow Light Snow  
Wind Chill:   Ceiling: 2500
Heat Index: 18°   Visibility: 1mi
Dew Point: 11°   Wind: 12mph
Humidity: 74%   Direction: 10°N
Pressure: 29.75"   Gusts: 22mph
Location:  42.02°N, 73.59°W
Report Text: KPOU 271553Z 01010G19KT 1SM -SN OVC025 M08/M12 A2975 RMK AO2 SLP075 P0000 T10781117
Loading
Personal Weather Stations






























Interactive Weather Map New forecast layout! Learn more

10-Day Weather Forecast

Advertisements
Track Severe Weather on mobile